To NAV CANADA Home Page Login to a new session Search on AWWS site Feedback and Comments Disclaimer Vers la page française équivalente Tips FAQ What's new on the site To the Forecasts and Observations / NOTAM section To "File a Flight Plan" website Publications and other links Update of the User's profile FIC Telephone Numbers My Weather Data Folder Route Weather Data Regional Weather Data Local Weather Data To the Forecasts and Observations / NOTAM section
Request Generated 03/23/2017 at 00:10:11 UTC . Weather information available at that time is displayed.

METAR/TAF

RANKIN INLET/NU    

METAR CYRT 230000Z 32007KT 15SM BKN110 M23/M27 A3006 RMK AC7 SLP187=
METAR CYRT 222300Z 34010KT 15SM SCT110 BKN250 M23/M27 A3008 RMK
AC4CI2 SLP193=
METAR CYRT 222200Z 32013KT 15SM FEW110 BKN270 M23/M27 A3009 RMK
AC2CI4 SLP196=

TAF CYRT 222341Z 2300/2312 34012KT P6SM SKC
FM230300 28010KT P6SM FEW020 BKN080
RMK NXT FCST BY 230600Z=
Your time UTC time
Weather data provided by Environment Canada and NAV CANADA